• Join FlightAware (Why Join?)
  • Login
  • US Flag 
07:52AM EDT


 

Airport Tracker/Info


-or-


 

Live Flight TrackerFlight Track Log ✈ ASQ5875 ✈ 2013年 05月 05日 ✈ KORD - KLEX

Flight Track Log - Related Links

Times and Time Zones

All times are in EDT time to prevent confusion due to time zone crossing. See the ASQ5875 flight status page for this flight to view local times or setup timezone preferences in your user account.

Time Position Orientation Groundspeed Altitude Reporting Facility
EDT Latitude Longitude Course Direction KTS MPH feet Rate Location/Type
10:31PM 41.9833 -87.8667 188° South 172 198 1,800  Level Chicago TRACON
10:32PM 41.9500 -87.8333 143° Southeast 216 249 3,700 2,100 Climbing Chicago TRACON
10:33PM 41.8339 -87.8294 179° South 256 295 7,000 2,040 Climbing Chicago Center
10:34PM 41.6668 -87.6258 157° South  Level Estimated
10:34PM 41.7603 -87.8306 181° South 264 304 9,000  Level Chicago Center
10:35PM 41.5880 -87.5561 156° South  Level Estimated
10:35PM 41.6917 -87.7833 153° Southeast 278 320 10,900  Level Chicago Center
10:36PM 41.4945 -87.5745 188° South  Level FlightAware Approximate
10:36PM 41.6231 -87.7283 149° Southeast 286 329 12,500  Level Chicago Center
10:37PM 41.5478 -87.6703 150° Southeast 309 356 13,500 1,080 Climbing Chicago Center
10:38PM 41.4672 -87.6050 149° Southeast 332 382 14,800 1,380 Climbing Chicago Center
10:39PM 41.3792 -87.5661 162° South 336 387 16,400 1,320 Climbing Chicago Center
10:40PM 41.2839 -87.5492 172° South 345 397 17,600 1,080 Climbing Chicago Center
10:41PM 41.1853 -87.5303 172° South 351 404 18,600 1,080 Climbing Chicago Center
10:42PM 41.0872 -87.5039 169° South 358 412 19,800 1,320 Climbing Chicago Center
10:43PM 40.9775 -87.4389 156° South 362 417 21,300 1,260 Climbing Chicago Center
10:44PM 40.8861 -87.3797 154° Southeast 365 420 22,400 1,080 Climbing Chicago Center
10:46PM 40.7958 -87.3183 153° Southeast 365 420 23,600 1,140 Climbing Chicago Center
10:47PM 40.7044 -87.2581 153° Southeast 367 422 24,800 1,140 Climbing Chicago Center
10:48PM 40.6147 -87.1967 153° Southeast 365 420 26,000 1,080 Climbing Chicago Center
10:49PM 40.5250 -87.1367 153° Southeast 364 419 27,000 480 Climbing Chicago Center
10:50PM 40.4264 -87.0694 153° Southeast 374 430 27,000  Level Chicago Center
10:51PM 40.3275 -87.0039 153° Southeast 395 455 27,000  Level Chicago Center
10:52PM 40.2264 -86.9364 153° Southeast 408 470 27,000  Level Chicago Center
10:53PM 40.1239 -86.8703 154° Southeast 413 475 27,000  Level Chicago Center
10:54PM 40.0189 -86.8003 153° Southeast 417 480 27,000  Level Indianapolis Center
10:55PM 39.9150 -86.7325 153° Southeast 421 484 27,000  Level Indianapolis Center
10:56PM 39.8117 -86.6658 154° Southeast 419 482 27,000  Level Indianapolis Center
10:57PM 39.7103 -86.5978 153° Southeast 417 480 27,000 -360 Level Indianapolis Center
10:58PM 39.6094 -86.5325 153° Southeast 413 475 26,300 -840 Descending Indianapolis Center
10:59PM 39.5106 -86.4683 153° Southeast 405 466 25,300 -1,020 Descending Indianapolis Center
11:00PM 39.4108 -86.4039 153° Southeast 405 466 24,300 -960 Descending Indianapolis Center
11:01PM 39.3133 -86.3414 154° Southeast 397 457 23,400 -660 Descending Indianapolis Center
11:02PM 39.2203 -86.2736 151° Southeast 389 448 23,000 -240 Descending Indianapolis Center
11:03PM 39.1353 -86.1522 132° Southeast 384 442 23,000  Level Indianapolis Center
11:04PM 39.0664 -86.0508 131° Southeast 380 437 23,000  Level Indianapolis Center
11:05PM 38.9950 -85.9497 132° Southeast 382 440 23,000  Level Indianapolis Center
11:06PM 38.9256 -85.8503 132° Southeast 377 434 23,000  Level Indianapolis Center
11:07PM 38.8547 -85.7492 132° Southeast 382 440 23,000 -120 Level Indianapolis Center
11:08PM 38.7844 -85.6500 132° Southeast 377 434 22,800 -1,560 Descending Indianapolis Center
11:09PM 38.7164 -85.5542 132° Southeast 369 425 19,900 -2,940 Descending Indianapolis Center
11:10PM 38.6511 -85.4617 132° Southeast 354 407 16,900 -2,880 Descending Indianapolis Center
11:11PM 38.5806 -85.3622 132° Southeast 342 394 14,100 -2,340 Descending Indianapolis Center
11:12PM 38.5194 -85.2769 132° Southeast 326 375 12,300 -1,560 Descending Indianapolis Center
11:13PM 38.4539 -85.1836 132° Southeast 331 381 11,000 -660 Descending Indianapolis Center
11:14PM 38.3889 -85.0944 133° Southeast 341 392 11,000  Level Indianapolis Center
11:15PM 38.3267 -85.0108 133° Southeast 322 371 11,000 -720 Level Indianapolis Center
11:16PM 38.2794 -84.9411 131° Southeast 264 304 9,600 -1,620 Descending Indianapolis Center
11:17PM 38.2253 -84.8817 139° Southeast 261 300 7,800 -1,740 Descending Indianapolis Center
11:18PM 38.1553 -84.8642 169° South 259 298 6,100 -1,380 Descending Indianapolis Center
11:19PM 38.0881 -84.8758 188° South 249 287 5,100 -600 Descending Indianapolis Center
11:20PM 38.0294 -84.8819 185° South 233 268 4,900 -600 Descending Indianapolis Center
11:21PM 37.9881 -84.8425 143° Southeast 195 224 3,900 -1,020 Descending Indianapolis Center
11:22PM 37.9428 -84.8094 150° Southeast 189 217 2,900 -720 Descending Indianapolis Center
11:23PM 37.9169 -84.7614 124° Southeast 176 203 2,500 -240 Descending Indianapolis Center
11:24PM 37.9528 -84.7058 51° Northeast 183 211 2,500 -60 Level Indianapolis Center
11:25PM 37.9931 -84.6542 45° Northeast 186 214 2,400 -300 Descending Indianapolis Center
11:26PM 38.0183 -84.6194 47° Northeast 183 211 2,000 -420 Descending Indianapolis Center